sensor_id;sensor_type;location;lat;lon;timestamp;temperature;humidity
64855;DHT22;51321;50.428;8.378;2023-09-08T00:00:26;15.60;99.90
64855;DHT22;51321;50.428;8.378;2023-09-08T00:03:06;15.70;99.90
64855;DHT22;51321;50.428;8.378;2023-09-08T00:05:46;15.70;99.90
64855;DHT22;51321;50.428;8.378;2023-09-08T00:08:28;15.60;99.90
64855;DHT22;51321;50.428;8.378;2023-09-08T00:11:09;15.30;99.90
64855;DHT22;51321;50.428;8.378;2023-09-08T00:13:49;15.40;99.90
64855;DHT22;51321;50.428;8.378;2023-09-08T00:16:30;15.30;99.90
64855;DHT22;51321;50.428;8.378;2023-09-08T00:19:10;15.40;99.90
64855;DHT22;51321;50.428;8.378;2023-09-08T00:21:50;15.30;99.90
64855;DHT22;51321;50.428;8.378;2023-09-08T00:24:33;15.30;99.90
64855;DHT22;51321;50.428;8.378;2023-09-08T00:27:13;15.20;99.90
64855;DHT22;51321;50.428;8.378;2023-09-08T00:29:53;15.30;99.90
64855;DHT22;51321;50.428;8.378;2023-09-08T00:32:34;15.40;99.90
64855;DHT22;51321;50.428;8.378;2023-09-08T00:35:15;15.40;99.90
64855;DHT22;51321;50.428;8.378;2023-09-08T00:37:55;15.20;99.90
64855;DHT22;51321;50.428;8.378;2023-09-08T00:40:37;15.20;99.90
64855;DHT22;51321;50.428;8.378;2023-09-08T00:43:17;15.10;99.90
64855;DHT22;51321;50.428;8.378;2023-09-08T00:45:58;15.20;99.90
64855;DHT22;51321;50.428;8.378;2023-09-08T00:48:40;15.30;99.90
64855;DHT22;51321;50.428;8.378;2023-09-08T00:51:21;15.10;99.90
64855;DHT22;51321;50.428;8.378;2023-09-08T00:54:02;15.10;99.90
64855;DHT22;51321;50.428;8.378;2023-09-08T00:56:44;15.10;99.90
64855;DHT22;51321;50.428;8.378;2023-09-08T00:59:25;15.00;99.90
64855;DHT22;51321;50.428;8.378;2023-09-08T01:02:05;15.00;99.90
64855;DHT22;51321;50.428;8.378;2023-09-08T01:04:45;15.00;99.90
64855;DHT22;51321;50.428;8.378;2023-09-08T01:07:25;15.20;99.90
64855;DHT22;51321;50.428;8.378;2023-09-08T01:10:07;15.10;99.90
64855;DHT22;51321;50.428;8.378;2023-09-08T01:12:49;15.10;99.90
64855;DHT22;51321;50.428;8.378;2023-09-08T01:15:29;15.10;99.90
64855;DHT22;51321;50.428;8.378;2023-09-08T01:18:10;15.10;99.90
64855;DHT22;51321;50.428;8.378;2023-09-08T01:21:03;15.10;99.90
64855;DHT22;51321;50.428;8.378;2023-09-08T01:23:52;15.00;99.90
64855;DHT22;51321;50.428;8.378;2023-09-08T01:26:39;14.80;99.90
64855;DHT22;51321;50.428;8.378;2023-09-08T01:29:21;14.80;99.90
64855;DHT22;51321;50.428;8.378;2023-09-08T01:32:03;14.90;99.90
64855;DHT22;51321;50.428;8.378;2023-09-08T01:34:44;15.00;99.90
64855;DHT22;51321;50.428;8.378;2023-09-08T01:37:24;15.00;99.90
64855;DHT22;51321;50.428;8.378;2023-09-08T01:40:05;15.00;99.90
64855;DHT22;51321;50.428;8.378;2023-09-08T01:42:47;14.90;99.90
64855;DHT22;51321;50.428;8.378;2023-09-08T01:45:28;14.70;99.90
64855;DHT22;51321;50.428;8.378;2023-09-08T01:48:09;14.50;99.90
64855;DHT22;51321;50.428;8.378;2023-09-08T01:50:52;14.60;99.90
64855;DHT22;51321;50.428;8.378;2023-09-08T01:53:34;14.50;99.90
64855;DHT22;51321;50.428;8.378;2023-09-08T01:56:14;14.40;99.90
64855;DHT22;51321;50.428;8.378;2023-09-08T01:58:56;14.40;99.90
64855;DHT22;51321;50.428;8.378;2023-09-08T02:01:38;14.50;99.90
64855;DHT22;51321;50.428;8.378;2023-09-08T02:04:18;14.50;99.90
64855;DHT22;51321;50.428;8.378;2023-09-08T02:06:59;14.60;99.90
64855;DHT22;51321;50.428;8.378;2023-09-08T02:09:39;14.70;99.90
64855;DHT22;51321;50.428;8.378;2023-09-08T02:12:20;14.70;99.90
64855;DHT22;51321;50.428;8.378;2023-09-08T02:15:03;14.60;99.90
64855;DHT22;51321;50.428;8.378;2023-09-08T02:17:44;14.60;99.90
64855;DHT22;51321;50.428;8.378;2023-09-08T02:20:24;14.50;99.90
64855;DHT22;51321;50.428;8.378;2023-09-08T02:23:05;14.50;99.90
64855;DHT22;51321;50.428;8.378;2023-09-08T02:25:46;14.60;99.90
64855;DHT22;51321;50.428;8.378;2023-09-08T02:28:26;14.60;99.90
64855;DHT22;51321;50.428;8.378;2023-09-08T02:31:08;14.70;99.90
64855;DHT22;51321;50.428;8.378;2023-09-08T02:33:48;14.60;99.90
64855;DHT22;51321;50.428;8.378;2023-09-08T02:36:29;14.50;99.90
64855;DHT22;51321;50.428;8.378;2023-09-08T02:39:10;14.50;99.90
64855;DHT22;51321;50.428;8.378;2023-09-08T02:41:51;14.40;99.90
64855;DHT22;51321;50.428;8.378;2023-09-08T02:44:34;14.40;99.90
64855;DHT22;51321;50.428;8.378;2023-09-08T02:47:15;14.40;99.90
64855;DHT22;51321;50.428;8.378;2023-09-08T02:49:56;14.30;99.90
64855;DHT22;51321;50.428;8.378;2023-09-08T02:52:37;14.30;99.90
64855;DHT22;51321;50.428;8.378;2023-09-08T02:55:17;14.40;99.90
64855;DHT22;51321;50.428;8.378;2023-09-08T02:57:58;14.50;99.90
64855;DHT22;51321;50.428;8.378;2023-09-08T03:00:38;14.50;99.90
64855;DHT22;51321;50.428;8.378;2023-09-08T03:03:20;14.30;99.90
64855;DHT22;51321;50.428;8.378;2023-09-08T03:06:00;14.10;99.90
64855;DHT22;51321;50.428;8.378;2023-09-08T03:08:43;14.00;99.90
64855;DHT22;51321;50.428;8.378;2023-09-08T03:11:23;13.90;99.90
64855;DHT22;51321;50.428;8.378;2023-09-08T03:14:03;13.90;99.90
64855;DHT22;51321;50.428;8.378;2023-09-08T03:16:44;14.10;99.90
64855;DHT22;51321;50.428;8.378;2023-09-08T03:19:25;14.10;99.90
64855;DHT22;51321;50.428;8.378;2023-09-08T03:22:06;14.20;99.90
64855;DHT22;51321;50.428;8.378;2023-09-08T03:24:46;14.10;99.90
64855;DHT22;51321;50.428;8.378;2023-09-08T03:27:26;14.00;99.90
64855;DHT22;51321;50.428;8.378;2023-09-08T03:30:07;14.10;99.90
64855;DHT22;51321;50.428;8.378;2023-09-08T03:32:48;14.00;99.90
64855;DHT22;51321;50.428;8.378;2023-09-08T03:35:29;14.00;99.90
64855;DHT22;51321;50.428;8.378;2023-09-08T03:38:09;14.10;99.90
64855;DHT22;51321;50.428;8.378;2023-09-08T03:40:50;14.10;99.90
64855;DHT22;51321;50.428;8.378;2023-09-08T03:43:31;14.20;99.90
64855;DHT22;51321;50.428;8.378;2023-09-08T03:46:11;14.20;99.90
64855;DHT22;51321;50.428;8.378;2023-09-08T03:48:51;14.10;99.90
64855;DHT22;51321;50.428;8.378;2023-09-08T03:51:38;14.10;99.90
64855;DHT22;51321;50.428;8.378;2023-09-08T03:54:19;13.90;99.90
64855;DHT22;51321;50.428;8.378;2023-09-08T03:56:59;13.90;99.90
64855;DHT22;51321;50.428;8.378;2023-09-08T03:59:39;13.90;99.90
64855;DHT22;51321;50.428;8.378;2023-09-08T04:02:20;14.10;99.90
64855;DHT22;51321;50.428;8.378;2023-09-08T04:05:00;14.00;99.90
64855;DHT22;51321;50.428;8.378;2023-09-08T04:07:42;14.00;99.90
64855;DHT22;51321;50.428;8.378;2023-09-08T04:10:22;14.10;99.90
64855;DHT22;51321;50.428;8.378;2023-09-08T04:13:02;13.80;99.90
64855;DHT22;51321;50.428;8.378;2023-09-08T04:15:43;13.60;99.90
64855;DHT22;51321;50.428;8.378;2023-09-08T04:18:24;13.50;99.90
64855;DHT22;51321;50.428;8.378;2023-09-08T04:21:05;13.50;99.90
64855;DHT22;51321;50.428;8.378;2023-09-08T04:23:47;13.50;99.90
64855;DHT22;51321;50.428;8.378;2023-09-08T04:26:28;13.80;99.90
64855;DHT22;51321;50.428;8.378;2023-09-08T04:29:08;13.80;99.90
64855;DHT22;51321;50.428;8.378;2023-09-08T04:31:49;13.60;99.90
64855;DHT22;51321;50.428;8.378;2023-09-08T04:34:29;13.60;99.90
64855;DHT22;51321;50.428;8.378;2023-09-08T04:37:09;13.70;99.90
64855;DHT22;51321;50.428;8.378;2023-09-08T04:39:51;13.50;99.90
64855;DHT22;51321;50.428;8.378;2023-09-08T04:42:31;13.50;99.90
64855;DHT22;51321;50.428;8.378;2023-09-08T04:45:12;13.40;99.90
64855;DHT22;51321;50.428;8.378;2023-09-08T04:47:53;13.20;99.90
64855;DHT22;51321;50.428;8.378;2023-09-08T04:50:34;13.10;99.90
64855;DHT22;51321;50.428;8.378;2023-09-08T04:53:14;13.30;99.90
64855;DHT22;51321;50.428;8.378;2023-09-08T04:55:56;13.50;99.90
64855;DHT22;51321;50.428;8.378;2023-09-08T04:58:36;13.50;99.90
64855;DHT22;51321;50.428;8.378;2023-09-08T05:01:17;13.60;99.90
64855;DHT22;51321;50.428;8.378;2023-09-08T05:03:57;13.60;99.90
64855;DHT22;51321;50.428;8.378;2023-09-08T05:06:38;13.60;99.90
64855;DHT22;51321;50.428;8.378;2023-09-08T05:09:18;13.70;99.90
64855;DHT22;51321;50.428;8.378;2023-09-08T05:12:00;13.80;99.90
64855;DHT22;51321;50.428;8.378;2023-09-08T05:14:41;13.70;99.90
64855;DHT22;51321;50.428;8.378;2023-09-08T05:17:23;13.80;99.90
64855;DHT22;51321;50.428;8.378;2023-09-08T05:20:04;13.70;99.90
64855;DHT22;51321;50.428;8.378;2023-09-08T05:22:45;13.40;99.90
64855;DHT22;51321;50.428;8.378;2023-09-08T05:25:25;13.30;99.90
64855;DHT22;51321;50.428;8.378;2023-09-08T05:28:07;13.40;99.90
64855;DHT22;51321;50.428;8.378;2023-09-08T05:30:47;13.60;99.90
64855;DHT22;51321;50.428;8.378;2023-09-08T05:33:31;13.80;99.90
64855;DHT22;51321;50.428;8.378;2023-09-08T05:36:11;13.80;99.90
64855;DHT22;51321;50.428;8.378;2023-09-08T05:38:52;13.80;99.90
64855;DHT22;51321;50.428;8.378;2023-09-08T05:41:33;13.90;99.90
64855;DHT22;51321;50.428;8.378;2023-09-08T05:44:16;14.10;99.90
64855;DHT22;51321;50.428;8.378;2023-09-08T05:46:56;14.30;99.90
64855;DHT22;51321;50.428;8.378;2023-09-08T05:49:36;14.30;99.90
64855;DHT22;51321;50.428;8.378;2023-09-08T05:52:17;14.30;99.90
64855;DHT22;51321;50.428;8.378;2023-09-08T05:54:58;14.30;99.90
64855;DHT22;51321;50.428;8.378;2023-09-08T05:57:39;14.40;99.90
64855;DHT22;51321;50.428;8.378;2023-09-08T06:00:21;14.40;99.90
64855;DHT22;51321;50.428;8.378;2023-09-08T06:03:05;14.40;99.90
64855;DHT22;51321;50.428;8.378;2023-09-08T06:05:45;14.40;99.90
64855;DHT22;51321;50.428;8.378;2023-09-08T06:08:25;14.60;99.90
64855;DHT22;51321;50.428;8.378;2023-09-08T06:11:07;14.80;99.90
64855;DHT22;51321;50.428;8.378;2023-09-08T06:13:49;15.00;99.90
64855;DHT22;51321;50.428;8.378;2023-09-08T06:16:30;15.00;99.90
64855;DHT22;51321;50.428;8.378;2023-09-08T06:19:11;15.10;99.90
64855;DHT22;51321;50.428;8.378;2023-09-08T06:21:51;15.20;99.90
64855;DHT22;51321;50.428;8.378;2023-09-08T06:24:32;15.30;99.90
64855;DHT22;51321;50.428;8.378;2023-09-08T06:27:13;15.40;99.90
64855;DHT22;51321;50.428;8.378;2023-09-08T06:29:54;15.50;99.90
64855;DHT22;51321;50.428;8.378;2023-09-08T06:32:37;15.50;99.90
64855;DHT22;51321;50.428;8.378;2023-09-08T06:35:17;15.60;99.90
64855;DHT22;51321;50.428;8.378;2023-09-08T06:37:57;15.70;99.90
64855;DHT22;51321;50.428;8.378;2023-09-08T06:40:39;15.80;99.90
64855;DHT22;51321;50.428;8.378;2023-09-08T06:43:19;16.00;99.90
64855;DHT22;51321;50.428;8.378;2023-09-08T06:46:10;16.00;99.90
64855;DHT22;51321;50.428;8.378;2023-09-08T06:48:51;15.90;99.90
64855;DHT22;51321;50.428;8.378;2023-09-08T06:51:32;16.10;99.90
64855;DHT22;51321;50.428;8.378;2023-09-08T06:54:13;16.20;99.90
64855;DHT22;51321;50.428;8.378;2023-09-08T06:56:56;16.40;99.90
64855;DHT22;51321;50.428;8.378;2023-09-08T06:59:37;16.60;99.90
64855;DHT22;51321;50.428;8.378;2023-09-08T07:02:17;16.80;99.90
64855;DHT22;51321;50.428;8.378;2023-09-08T07:04:59;17.00;99.90
64855;DHT22;51321;50.428;8.378;2023-09-08T07:07:40;17.10;99.90
64855;DHT22;51321;50.428;8.378;2023-09-08T07:10:20;17.20;99.90
64855;DHT22;51321;50.428;8.378;2023-09-08T07:13:01;17.30;99.90
64855;DHT22;51321;50.428;8.378;2023-09-08T07:15:42;17.40;99.90
64855;DHT22;51321;50.428;8.378;2023-09-08T07:18:22;17.60;99.90
64855;DHT22;51321;50.428;8.378;2023-09-08T07:21:04;17.70;99.90
64855;DHT22;51321;50.428;8.378;2023-09-08T07:23:45;17.80;99.90
64855;DHT22;51321;50.428;8.378;2023-09-08T07:26:27;18.00;99.90
64855;DHT22;51321;50.428;8.378;2023-09-08T07:29:07;18.20;99.90
64855;DHT22;51321;50.428;8.378;2023-09-08T07:31:49;18.40;99.90
64855;DHT22;51321;50.428;8.378;2023-09-08T07:34:30;18.70;99.90
64855;DHT22;51321;50.428;8.378;2023-09-08T07:37:11;18.90;99.90
64855;DHT22;51321;50.428;8.378;2023-09-08T07:39:52;19.00;99.90
64855;DHT22;51321;50.428;8.378;2023-09-08T07:42:32;19.20;99.90
64855;DHT22;51321;50.428;8.378;2023-09-08T07:45:13;19.40;99.90
64855;DHT22;51321;50.428;8.378;2023-09-08T07:47:53;19.60;99.90
64855;DHT22;51321;50.428;8.378;2023-09-08T07:50:34;19.70;99.90
64855;DHT22;51321;50.428;8.378;2023-09-08T07:53:15;19.90;99.90
64855;DHT22;51321;50.428;8.378;2023-09-08T07:55:56;20.10;99.90
64855;DHT22;51321;50.428;8.378;2023-09-08T07:58:36;20.30;99.90
64855;DHT22;51321;50.428;8.378;2023-09-08T08:01:17;20.50;99.90
64855;DHT22;51321;50.428;8.378;2023-09-08T08:03:57;20.60;99.90
64855;DHT22;51321;50.428;8.378;2023-09-08T08:06:38;20.70;99.90
64855;DHT22;51321;50.428;8.378;2023-09-08T08:09:19;20.80;99.90
64855;DHT22;51321;50.428;8.378;2023-09-08T08:12:00;20.90;99.90
64855;DHT22;51321;50.428;8.378;2023-09-08T08:14:40;21.10;99.90
64855;DHT22;51321;50.428;8.378;2023-09-08T08:17:21;21.30;99.90
64855;DHT22;51321;50.428;8.378;2023-09-08T08:20:01;21.60;99.90
64855;DHT22;51321;50.428;8.378;2023-09-08T08:22:45;21.70;99.90
64855;DHT22;51321;50.428;8.378;2023-09-08T08:25:27;22.00;99.90
64855;DHT22;51321;50.428;8.378;2023-09-08T08:28:07;22.20;99.90
64855;DHT22;51321;50.428;8.378;2023-09-08T08:30:48;22.40;99.90
64855;DHT22;51321;50.428;8.378;2023-09-08T08:33:28;22.50;99.90
64855;DHT22;51321;50.428;8.378;2023-09-08T08:36:08;22.80;99.90
64855;DHT22;51321;50.428;8.378;2023-09-08T08:38:49;23.10;99.90
64855;DHT22;51321;50.428;8.378;2023-09-08T08:41:30;23.30;99.90
64855;DHT22;51321;50.428;8.378;2023-09-08T08:44:13;23.60;99.90
64855;DHT22;51321;50.428;8.378;2023-09-08T08:46:55;23.70;99.90
64855;DHT22;51321;50.428;8.378;2023-09-08T08:49:36;23.90;99.90
64855;DHT22;51321;50.428;8.378;2023-09-08T08:52:18;23.90;99.00
64855;DHT22;51321;50.428;8.378;2023-09-08T08:54:59;24.00;99.10
64855;DHT22;51321;50.428;8.378;2023-09-08T08:57:41;24.30;98.80
64855;DHT22;51321;50.428;8.378;2023-09-08T09:00:21;24.60;99.20
64855;DHT22;51321;50.428;8.378;2023-09-08T09:03:02;24.70;99.50
64855;DHT22;51321;50.428;8.378;2023-09-08T09:05:44;24.90;97.70
64855;DHT22;51321;50.428;8.378;2023-09-08T09:08:24;25.00;97.70
64855;DHT22;51321;50.428;8.378;2023-09-08T09:11:05;25.20;97.90
64855;DHT22;51321;50.428;8.378;2023-09-08T09:13:46;25.40;96.40
64855;DHT22;51321;50.428;8.378;2023-09-08T09:16:27;25.30;96.10
64855;DHT22;51321;50.428;8.378;2023-09-08T09:19:07;25.40;96.60
64855;DHT22;51321;50.428;8.378;2023-09-08T09:21:48;25.50;96.80
64855;DHT22;51321;50.428;8.378;2023-09-08T09:24:31;25.50;96.20
64855;DHT22;51321;50.428;8.378;2023-09-08T09:27:12;25.70;95.70
64855;DHT22;51321;50.428;8.378;2023-09-08T09:29:54;25.90;95.50
64855;DHT22;51321;50.428;8.378;2023-09-08T09:32:34;26.00;94.80
64855;DHT22;51321;50.428;8.378;2023-09-08T09:35:15;26.10;94.60
64855;DHT22;51321;50.428;8.378;2023-09-08T09:37:55;26.10;95.20
64855;DHT22;51321;50.428;8.378;2023-09-08T09:40:36;26.30;94.60
64855;DHT22;51321;50.428;8.378;2023-09-08T09:43:17;26.40;94.30
64855;DHT22;51321;50.428;8.378;2023-09-08T09:46:02;26.50;94.00
64855;DHT22;51321;50.428;8.378;2023-09-08T09:48:42;26.40;94.30
64855;DHT22;51321;50.428;8.378;2023-09-08T09:51:22;26.50;94.10
64855;DHT22;51321;50.428;8.378;2023-09-08T09:54:03;26.50;94.40
64855;DHT22;51321;50.428;8.378;2023-09-08T09:56:43;26.70;94.20
64855;DHT22;51321;50.428;8.378;2023-09-08T09:59:24;26.70;93.20
64855;DHT22;51321;50.428;8.378;2023-09-08T10:02:07;27.00;94.00
64855;DHT22;51321;50.428;8.378;2023-09-08T10:04:50;27.10;92.70
64855;DHT22;51321;50.428;8.378;2023-09-08T10:07:30;27.10;93.00
64855;DHT22;51321;50.428;8.378;2023-09-08T10:10:11;27.10;92.70
64855;DHT22;51321;50.428;8.378;2023-09-08T10:12:52;27.10;92.80
64855;DHT22;51321;50.428;8.378;2023-09-08T10:15:33;27.20;92.60
64855;DHT22;51321;50.428;8.378;2023-09-08T10:18:15;27.20;93.10
64855;DHT22;51321;50.428;8.378;2023-09-08T10:20:56;27.00;92.20
64855;DHT22;51321;50.428;8.378;2023-09-08T10:23:38;27.00;92.20
64855;DHT22;51321;50.428;8.378;2023-09-08T10:26:21;27.20;92.40
64855;DHT22;51321;50.428;8.378;2023-09-08T10:29:05;27.60;92.40
64855;DHT22;51321;50.428;8.378;2023-09-08T10:31:45;28.00;91.20
64855;DHT22;51321;50.428;8.378;2023-09-08T10:34:27;27.80;91.40
64855;DHT22;51321;50.428;8.378;2023-09-08T10:37:18;27.90;91.50
64855;DHT22;51321;50.428;8.378;2023-09-08T10:43:06;27.90;90.80
64855;DHT22;51321;50.428;8.378;2023-09-08T10:45:47;28.10;90.30
64855;DHT22;51321;50.428;8.378;2023-09-08T10:48:27;28.30;90.30
64855;DHT22;51321;50.428;8.378;2023-09-08T10:51:16;28.50;89.30
64855;DHT22;51321;50.428;8.378;2023-09-08T10:53:56;28.40;88.40
64855;DHT22;51321;50.428;8.378;2023-09-08T10:56:47;28.50;89.60
64855;DHT22;51321;50.428;8.378;2023-09-08T10:59:28;28.70;88.10
64855;DHT22;51321;50.428;8.378;2023-09-08T11:02:11;28.50;89.60
64855;DHT22;51321;50.428;8.378;2023-09-08T11:05:12;28.50;88.70
64855;DHT22;51321;50.428;8.378;2023-09-08T11:07:55;28.70;86.50
64855;DHT22;51321;50.428;8.378;2023-09-08T11:10:35;28.70;86.30
64855;DHT22;51321;50.428;8.378;2023-09-08T11:13:16;28.90;86.90
64855;DHT22;51321;50.428;8.378;2023-09-08T11:15:57;29.20;85.30
64855;DHT22;51321;50.428;8.378;2023-09-08T11:18:38;29.30;85.50
64855;DHT22;51321;50.428;8.378;2023-09-08T11:21:18;29.40;84.20
64855;DHT22;51321;50.428;8.378;2023-09-08T11:24:00;29.30;83.50
64855;DHT22;51321;50.428;8.378;2023-09-08T11:26:40;29.00;82.70
64855;DHT22;51321;50.428;8.378;2023-09-08T11:29:24;29.00;84.60
64855;DHT22;51321;50.428;8.378;2023-09-08T11:32:05;28.90;84.30
64855;DHT22;51321;50.428;8.378;2023-09-08T11:34:46;29.00;84.60
64855;DHT22;51321;50.428;8.378;2023-09-08T11:37:26;29.10;84.20
64855;DHT22;51321;50.428;8.378;2023-09-08T11:40:09;29.30;83.40
64855;DHT22;51321;50.428;8.378;2023-09-08T11:42:51;29.20;80.30
64855;DHT22;51321;50.428;8.378;2023-09-08T11:45:33;29.20;82.80
64855;DHT22;51321;50.428;8.378;2023-09-08T11:48:14;29.30;81.10
64855;DHT22;51321;50.428;8.378;2023-09-08T11:50:55;29.30;81.80
64855;DHT22;51321;50.428;8.378;2023-09-08T11:53:35;29.30;81.10
64855;DHT22;51321;50.428;8.378;2023-09-08T11:56:18;29.30;79.30
64855;DHT22;51321;50.428;8.378;2023-09-08T11:58:58;29.30;81.20
64855;DHT22;51321;50.428;8.378;2023-09-08T12:01:39;29.50;80.40
64855;DHT22;51321;50.428;8.378;2023-09-08T12:04:19;29.80;80.20
64855;DHT22;51321;50.428;8.378;2023-09-08T12:07:00;29.90;80.00
64855;DHT22;51321;50.428;8.378;2023-09-08T12:09:40;29.60;80.70
64855;DHT22;51321;50.428;8.378;2023-09-08T12:12:22;29.50;80.30
64855;DHT22;51321;50.428;8.378;2023-09-08T12:15:03;29.40;80.50
64855;DHT22;51321;50.428;8.378;2023-09-08T12:17:47;29.60;81.20
64855;DHT22;51321;50.428;8.378;2023-09-08T12:20:27;29.70;80.50
64855;DHT22;51321;50.428;8.378;2023-09-08T12:23:15;30.10;80.00
64855;DHT22;51321;50.428;8.378;2023-09-08T12:25:56;30.30;79.90
64855;DHT22;51321;50.428;8.378;2023-09-08T12:28:38;30.20;76.60
64855;DHT22;51321;50.428;8.378;2023-09-08T12:31:18;30.20;77.00
64855;DHT22;51321;50.428;8.378;2023-09-08T12:34:00;30.30;75.20
64855;DHT22;51321;50.428;8.378;2023-09-08T12:36:43;30.20;76.20
64855;DHT22;51321;50.428;8.378;2023-09-08T12:39:24;29.80;76.10
64855;DHT22;51321;50.428;8.378;2023-09-08T12:42:04;29.40;77.10
64855;DHT22;51321;50.428;8.378;2023-09-08T12:44:46;29.40;76.30
64855;DHT22;51321;50.428;8.378;2023-09-08T12:47:27;29.50;77.60
64855;DHT22;51321;50.428;8.378;2023-09-08T12:50:07;29.60;76.20
64855;DHT22;51321;50.428;8.378;2023-09-08T12:52:47;29.60;77.00
64855;DHT22;51321;50.428;8.378;2023-09-08T12:55:28;29.70;76.80
64855;DHT22;51321;50.428;8.378;2023-09-08T12:58:08;29.80;77.40
64855;DHT22;51321;50.428;8.378;2023-09-08T13:00:50;29.80;77.10
64855;DHT22;51321;50.428;8.378;2023-09-08T13:03:31;29.80;79.40
64855;DHT22;51321;50.428;8.378;2023-09-08T13:06:11;29.50;75.90
64855;DHT22;51321;50.428;8.378;2023-09-08T13:08:51;29.50;76.10
64855;DHT22;51321;50.428;8.378;2023-09-08T13:11:32;29.60;76.70
64855;DHT22;51321;50.428;8.378;2023-09-08T13:14:12;29.80;77.30
64855;DHT22;51321;50.428;8.378;2023-09-08T13:16:54;29.50;75.10
64855;DHT22;51321;50.428;8.378;2023-09-08T13:19:34;29.60;75.70
64855;DHT22;51321;50.428;8.378;2023-09-08T13:22:16;29.50;76.80
64855;DHT22;51321;50.428;8.378;2023-09-08T13:24:57;29.50;76.60
64855;DHT22;51321;50.428;8.378;2023-09-08T13:27:37;29.50;76.50
64855;DHT22;51321;50.428;8.378;2023-09-08T13:30:17;29.60;75.90
64855;DHT22;51321;50.428;8.378;2023-09-08T13:33:02;29.60;76.50
64855;DHT22;51321;50.428;8.378;2023-09-08T13:35:42;29.80;76.60
64855;DHT22;51321;50.428;8.378;2023-09-08T13:38:22;29.70;75.40
64855;DHT22;51321;50.428;8.378;2023-09-08T13:41:03;29.70;75.70
64855;DHT22;51321;50.428;8.378;2023-09-08T13:43:44;29.70;75.80
64855;DHT22;51321;50.428;8.378;2023-09-08T13:46:24;29.70;75.00
64855;DHT22;51321;50.428;8.378;2023-09-08T13:49:05;29.60;74.80
64855;DHT22;51321;50.428;8.378;2023-09-08T13:51:45;29.60;74.90
64855;DHT22;51321;50.428;8.378;2023-09-08T13:54:26;29.60;73.80
64855;DHT22;51321;50.428;8.378;2023-09-08T13:57:07;29.50;74.40
64855;DHT22;51321;50.428;8.378;2023-09-08T13:59:47;29.20;75.20
64855;DHT22;51321;50.428;8.378;2023-09-08T14:02:27;29.10;76.00
64855;DHT22;51321;50.428;8.378;2023-09-08T14:05:09;29.20;75.40
64855;DHT22;51321;50.428;8.378;2023-09-08T14:07:50;29.20;75.00
64855;DHT22;51321;50.428;8.378;2023-09-08T14:10:30;29.20;75.10
64855;DHT22;51321;50.428;8.378;2023-09-08T14:13:11;29.20;75.40
64855;DHT22;51321;50.428;8.378;2023-09-08T14:15:51;29.20;76.40
64855;DHT22;51321;50.428;8.378;2023-09-08T14:18:32;29.10;74.70
64855;DHT22;51321;50.428;8.378;2023-09-08T14:21:14;29.10;73.40
64855;DHT22;51321;50.428;8.378;2023-09-08T14:23:54;29.00;73.80
64855;DHT22;51321;50.428;8.378;2023-09-08T14:26:34;28.80;73.20
64855;DHT22;51321;50.428;8.378;2023-09-08T14:29:15;28.80;74.20
64855;DHT22;51321;50.428;8.378;2023-09-08T14:31:57;28.50;75.30
64855;DHT22;51321;50.428;8.378;2023-09-08T14:34:37;28.40;77.60
64855;DHT22;51321;50.428;8.378;2023-09-08T14:37:19;28.30;76.60
64855;DHT22;51321;50.428;8.378;2023-09-08T14:39:59;28.30;76.60
64855;DHT22;51321;50.428;8.378;2023-09-08T14:42:39;28.30;78.90
64855;DHT22;51321;50.428;8.378;2023-09-08T14:45:20;28.30;79.40
64855;DHT22;51321;50.428;8.378;2023-09-08T14:48:00;28.30;79.10
64855;DHT22;51321;50.428;8.378;2023-09-08T14:50:41;28.40;78.30
64855;DHT22;51321;50.428;8.378;2023-09-08T14:53:23;28.50;78.00
64855;DHT22;51321;50.428;8.378;2023-09-08T14:56:03;28.60;77.60
64855;DHT22;51321;50.428;8.378;2023-09-08T14:58:43;28.70;77.60
64855;DHT22;51321;50.428;8.378;2023-09-08T15:01:24;28.90;77.90
64855;DHT22;51321;50.428;8.378;2023-09-08T15:04:04;29.20;77.40
64855;DHT22;51321;50.428;8.378;2023-09-08T15:06:44;29.50;77.10
64855;DHT22;51321;50.428;8.378;2023-09-08T15:09:26;29.60;76.60
64855;DHT22;51321;50.428;8.378;2023-09-08T15:12:07;29.20;77.70
64855;DHT22;51321;50.428;8.378;2023-09-08T15:14:47;28.80;76.80
64855;DHT22;51321;50.428;8.378;2023-09-08T15:17:28;28.40;77.40
64855;DHT22;51321;50.428;8.378;2023-09-08T15:20:08;28.10;78.20
64855;DHT22;51321;50.428;8.378;2023-09-08T15:22:49;27.90;79.60
64855;DHT22;51321;50.428;8.378;2023-09-08T15:25:31;27.70;79.80
64855;DHT22;51321;50.428;8.378;2023-09-08T15:28:11;27.50;80.40
64855;DHT22;51321;50.428;8.378;2023-09-08T15:30:52;27.40;79.90
64855;DHT22;51321;50.428;8.378;2023-09-08T15:33:32;27.20;85.00
64855;DHT22;51321;50.428;8.378;2023-09-08T15:36:12;27.00;83.20
64855;DHT22;51321;50.428;8.378;2023-09-08T15:38:52;26.80;86.60
64855;DHT22;51321;50.428;8.378;2023-09-08T15:41:34;26.50;88.10
64855;DHT22;51321;50.428;8.378;2023-09-08T15:44:14;26.40;87.40
64855;DHT22;51321;50.428;8.378;2023-09-08T15:46:55;26.20;90.40
64855;DHT22;51321;50.428;8.378;2023-09-08T15:49:35;26.10;90.70
64855;DHT22;51321;50.428;8.378;2023-09-08T15:52:15;26.00;90.80
64855;DHT22;51321;50.428;8.378;2023-09-08T15:54:55;25.90;88.90
64855;DHT22;51321;50.428;8.378;2023-09-08T15:57:37;25.90;90.00
64855;DHT22;51321;50.428;8.378;2023-09-08T16:00:17;25.80;90.40
64855;DHT22;51321;50.428;8.378;2023-09-08T16:02:58;25.80;88.20
64855;DHT22;51321;50.428;8.378;2023-09-08T16:05:39;25.80;91.40
64855;DHT22;51321;50.428;8.378;2023-09-08T16:08:19;25.70;90.80
64855;DHT22;51321;50.428;8.378;2023-09-08T16:11:00;25.70;92.10
64855;DHT22;51321;50.428;8.378;2023-09-08T16:13:42;25.60;92.40
64855;DHT22;51321;50.428;8.378;2023-09-08T16:16:23;25.50;92.30
64855;DHT22;51321;50.428;8.378;2023-09-08T16:19:03;25.40;92.00
64855;DHT22;51321;50.428;8.378;2023-09-08T16:21:43;25.30;92.40
64855;DHT22;51321;50.428;8.378;2023-09-08T16:24:23;25.30;92.70
64855;DHT22;51321;50.428;8.378;2023-09-08T16:27:04;25.20;93.30
64855;DHT22;51321;50.428;8.378;2023-09-08T16:29:46;25.10;93.40
64855;DHT22;51321;50.428;8.378;2023-09-08T16:32:26;25.10;93.20
64855;DHT22;51321;50.428;8.378;2023-09-08T16:35:07;25.00;93.00
64855;DHT22;51321;50.428;8.378;2023-09-08T16:37:47;24.90;93.80
64855;DHT22;51321;50.428;8.378;2023-09-08T16:40:28;24.80;93.80
64855;DHT22;51321;50.428;8.378;2023-09-08T16:43:08;24.70;93.90
64855;DHT22;51321;50.428;8.378;2023-09-08T16:45:50;24.60;94.30
64855;DHT22;51321;50.428;8.378;2023-09-08T16:48:30;24.50;94.60
64855;DHT22;51321;50.428;8.378;2023-09-08T16:51:11;24.40;94.50
64855;DHT22;51321;50.428;8.378;2023-09-08T16:53:51;24.30;94.60
64855;DHT22;51321;50.428;8.378;2023-09-08T16:56:32;24.20;94.90
64855;DHT22;51321;50.428;8.378;2023-09-08T16:59:12;24.10;94.80